createdAt,value
2022-10-01T00:01:14.352Z,100215.50
2022-10-01T00:03:41.215Z,100218.25
2022-10-01T00:06:10.044Z,100219.38
2022-10-01T00:08:37.605Z,100220.44
2022-10-01T00:11:08.246Z,100216.41
2022-10-01T00:13:36.056Z,100213.22
2022-10-01T00:16:04.538Z,100214.22
2022-10-01T00:18:30.934Z,100206.69
2022-10-01T00:20:57.281Z,100209.22
2022-10-01T00:23:23.699Z,100195.44
2022-10-01T00:25:52.143Z,100197.41
2022-10-01T00:28:18.624Z,100190.91
2022-10-01T00:30:47.999Z,100186.75
2022-10-01T00:33:14.377Z,100175.25
2022-10-01T00:35:40.806Z,100171.03
2022-10-01T00:38:07.185Z,100173.44
2022-10-01T00:40:33.561Z,100169.38
2022-10-01T00:42:59.924Z,100157.97
2022-10-01T00:45:26.458Z,100139.03
2022-10-01T00:47:58.096Z,100123.94
2022-10-01T00:50:30.347Z,100116.94
2022-10-01T00:52:59.499Z,100116.91
2022-10-01T00:55:28.155Z,100118.97
2022-10-01T00:57:55.182Z,100106.91
2022-10-01T01:00:22.186Z,100097.41
2022-10-01T01:02:49.517Z,100097.94
2022-10-01T01:05:15.887Z,100090.94
2022-10-01T01:07:45.355Z,100093.91
2022-10-01T01:10:13.229Z,100090.03
2022-10-01T01:12:55.680Z,100096.16
2022-10-01T01:15:30.276Z,100089.03
2022-10-01T01:18:06.030Z,100078.38
2022-10-01T01:20:42.647Z,100067.47
2022-10-01T01:23:15.117Z,100064.13
2022-10-01T01:25:44.561Z,100052.97
2022-10-01T01:28:14.031Z,100037.41
2022-10-01T01:30:41.234Z,100030.13
2022-10-01T01:33:11.903Z,100019.44
2022-10-01T01:35:41.919Z,100011.31
2022-10-01T01:38:11.255Z,100002.69
2022-10-01T01:40:40.024Z,99988.59
2022-10-01T01:43:08.348Z,99975.28
2022-10-01T01:45:38.255Z,99953.53
2022-10-01T01:48:05.793Z,99948.50
2022-10-01T01:50:37.645Z,99948.06
2022-10-01T01:53:04.134Z,99960.75
2022-10-01T01:55:30.910Z,99959.22
2022-10-01T01:57:57.795Z,99966.66
2022-10-01T02:00:24.210Z,99962.88
2022-10-01T02:02:53.196Z,99964.97
2022-10-01T02:05:22.803Z,99964.75
2022-10-01T02:07:52.730Z,99969.72
2022-10-01T02:10:31.112Z,99979.97
2022-10-01T02:13:13.043Z,99977.47
2022-10-01T02:15:39.421Z,99978.63
2022-10-01T02:18:05.776Z,99982.06
2022-10-01T02:20:42.186Z,99984.38
2022-10-01T02:23:11.561Z,99990.81
2022-10-01T02:25:40.250Z,99991.00
2022-10-01T02:28:09.700Z,99986.84
2022-10-01T02:30:37.873Z,99994.25
2022-10-01T02:33:05.339Z,99987.97
2022-10-01T02:35:33.759Z,99984.28
2022-10-01T02:38:01.987Z,99980.63
2022-10-01T02:40:30.962Z,99969.78
2022-10-01T02:43:00.732Z,99965.09
2022-10-01T02:45:27.507Z,99957.41
2022-10-01T02:47:55.914Z,99947.31
2022-10-01T02:50:23.483Z,99916.75
2022-10-01T02:52:54.479Z,99925.66
2022-10-01T02:55:20.958Z,99922.31
2022-10-01T02:57:47.431Z,99934.94
2022-10-01T03:00:16.071Z,99924.84
2022-10-01T03:02:42.488Z,99928.09
2022-10-01T03:05:09.149Z,99907.06
2022-10-01T03:07:36.198Z,99893.28
2022-10-01T03:10:03.206Z,99881.06
2022-10-01T03:12:29.546Z,99882.97
2022-10-01T03:14:55.940Z,99896.25
2022-10-01T03:17:22.395Z,99901.22
2022-10-01T03:19:48.721Z,99888.63
2022-10-01T03:22:16.149Z,99884.13
2022-10-01T03:24:42.503Z,99896.38
2022-10-01T03:27:08.848Z,99869.75
2022-10-01T03:29:35.296Z,99865.22
2022-10-01T03:32:01.851Z,99836.78
2022-10-01T03:34:28.271Z,99851.97
2022-10-01T03:36:54.636Z,99844.47
2022-10-01T03:39:21.020Z,99847.09
2022-10-01T03:41:47.371Z,99831.00
2022-10-01T03:44:13.707Z,99839.69
2022-10-01T03:46:40.079Z,99829.56
2022-10-01T03:49:06.414Z,99809.59
2022-10-01T03:51:33.497Z,99817.22
2022-10-01T03:54:00.118Z,99830.00
2022-10-01T03:56:26.460Z,99830.91
2022-10-01T03:58:52.905Z,99830.06
2022-10-01T04:01:19.303Z,99810.66
2022-10-01T04:03:46.291Z,99806.63
2022-10-01T04:06:13.126Z,99819.41
2022-10-01T04:08:39.528Z,99799.97
2022-10-01T04:11:06.376Z,99814.81
2022-10-01T04:13:33.317Z,99824.88
2022-10-01T04:15:59.732Z,99823.69
2022-10-01T04:18:26.218Z,99823.75
2022-10-01T04:20:52.623Z,99842.56
2022-10-01T04:23:18.981Z,99844.88
2022-10-01T04:25:45.405Z,99811.75
2022-10-01T04:28:13.628Z,99805.34
2022-10-01T04:30:41.243Z,99820.13
2022-10-01T04:33:09.108Z,99836.22
2022-10-01T04:35:36.289Z,99847.84
2022-10-01T04:38:04.630Z,99834.69
2022-10-01T04:40:31.833Z,99839.50
2022-10-01T04:42:58.200Z,99826.22
2022-10-01T04:45:24.576Z,99829.81
2022-10-01T04:47:51.799Z,99833.88
2022-10-01T04:50:18.900Z,99819.44
2022-10-01T04:52:49.216Z,99805.03
2022-10-01T04:55:16.103Z,99795.75
2022-10-01T04:57:42.467Z,99792.94
2022-10-01T05:00:10.543Z,99805.59
2022-10-01T05:02:37.679Z,99801.19
2022-10-01T05:05:05.243Z,99812.44
2022-10-01T05:07:32.272Z,99799.03
2022-10-01T05:09:58.678Z,99806.47
2022-10-01T05:12:25.880Z,99800.28
2022-10-01T05:14:52.659Z,99803.03
2022-10-01T05:17:19.512Z,99803.97
2022-10-01T05:19:46.403Z,99808.75
2022-10-01T05:22:12.884Z,99800.94
2022-10-01T05:24:40.048Z,99796.97
2022-10-01T05:27:09.410Z,99802.78
2022-10-01T05:29:35.759Z,99811.63
2022-10-01T05:32:02.193Z,99801.38
2022-10-01T05:34:28.583Z,99806.19
2022-10-01T05:36:55.060Z,99804.84
2022-10-01T05:39:21.395Z,99813.47
2022-10-01T05:41:47.856Z,99812.88
2022-10-01T05:44:14.233Z,99811.66
2022-10-01T05:46:41.149Z,99808.25
2022-10-01T05:49:08.263Z,99809.66
2022-10-01T05:51:36.051Z,99803.84
2022-10-01T05:54:03.961Z,99812.06
2022-10-01T05:56:30.441Z,99814.50
2022-10-01T05:58:56.780Z,99823.72
2022-10-01T06:01:23.150Z,99823.16
2022-10-01T06:03:52.944Z,99825.56
2022-10-01T06:06:22.805Z,99823.75
2022-10-01T06:08:49.838Z,99833.03
2022-10-01T06:11:16.983Z,99832.38
2022-10-01T06:13:45.264Z,99839.41
2022-10-01T06:16:12.120Z,99838.31
2022-10-01T06:18:38.500Z,99849.09
2022-10-01T06:21:04.957Z,99848.78
2022-10-01T06:23:31.324Z,99855.41
2022-10-01T06:25:59.663Z,99855.59
2022-10-01T06:28:26.140Z,99864.28
2022-10-01T06:30:52.580Z,99858.41
2022-10-01T06:33:19.194Z,99856.03
2022-10-01T06:35:51.761Z,99873.34
2022-10-01T06:38:20.017Z,99861.88
2022-10-01T06:40:56.717Z,99855.69
2022-10-01T06:43:23.867Z,99863.53
2022-10-01T06:45:50.375Z,99859.75
2022-10-01T06:48:18.663Z,99854.69
2022-10-01T06:50:45.706Z,99858.97
2022-10-01T06:53:12.991Z,99860.59
2022-10-01T06:55:39.407Z,99867.63
2022-10-01T06:58:12.376Z,99854.00
2022-10-01T07:00:38.996Z,99853.59
2022-10-01T07:03:10.137Z,99852.22
2022-10-01T07:05:36.969Z,99852.88
2022-10-01T07:08:03.788Z,99866.94
2022-10-01T07:10:30.485Z,99862.69
2022-10-01T07:13:05.240Z,99875.38
2022-10-01T07:15:31.605Z,99871.78
2022-10-01T07:17:57.951Z,99877.63
2022-10-01T07:20:24.357Z,99875.25
2022-10-01T07:22:56.173Z,99871.63
2022-10-01T07:25:23.011Z,99878.50
2022-10-01T07:27:49.667Z,99879.72
2022-10-01T07:30:16.108Z,99879.69
2022-10-01T07:32:45.242Z,99892.78
2022-10-01T07:35:11.647Z,99894.69
2022-10-01T07:37:38.015Z,99901.22
2022-10-01T07:40:07.490Z,99899.94
2022-10-01T07:42:34.543Z,99910.22
2022-10-01T07:45:03.492Z,99917.03
2022-10-01T07:47:29.890Z,99919.03
2022-10-01T07:49:56.252Z,99929.44
2022-10-01T07:52:22.616Z,99929.66
2022-10-01T07:54:48.993Z,99934.28
2022-10-01T07:57:15.636Z,99930.03
2022-10-01T07:59:42.752Z,99924.72
2022-10-01T08:02:15.943Z,99923.09
2022-10-01T08:05:01.190Z,99915.25
2022-10-01T08:07:27.670Z,99918.06
2022-10-01T08:09:54.063Z,99918.28
2022-10-01T08:12:20.395Z,99923.50
2022-10-01T08:14:49.561Z,99923.13
2022-10-01T08:17:15.929Z,99927.75
2022-10-01T08:19:42.335Z,99937.88
2022-10-01T08:22:08.698Z,99932.41
2022-10-01T08:24:36.228Z,99932.97
2022-10-01T08:27:02.646Z,99940.88
2022-10-01T08:29:28.979Z,99934.81
2022-10-01T08:31:56.151Z,99948.72
2022-10-01T08:34:22.567Z,99945.09
2022-10-01T08:36:52.031Z,99953.13
2022-10-01T08:39:18.649Z,99955.16
2022-10-01T08:41:45.017Z,99966.44
2022-10-01T08:44:18.122Z,99968.66
2022-10-01T08:46:45.635Z,99968.03
2022-10-01T08:49:22.159Z,99972.31
2022-10-01T08:51:52.447Z,99976.13
2022-10-01T08:54:25.487Z,99970.91
2022-10-01T08:56:53.935Z,99979.97
2022-10-01T08:59:39.885Z,99974.19
2022-10-01T09:02:18.373Z,99971.97
2022-10-01T09:04:45.798Z,99979.63
2022-10-01T09:07:24.121Z,99967.53
2022-10-01T09:10:05.215Z,99971.97
2022-10-01T09:12:39.800Z,99986.66
2022-10-01T09:15:25.046Z,99988.66
2022-10-01T09:17:54.449Z,99989.06
2022-10-01T09:20:25.138Z,99993.72
2022-10-01T09:23:12.135Z,99994.69
2022-10-01T09:25:38.884Z,99997.13
2022-10-01T09:28:23.416Z,99997.72
2022-10-01T09:30:54.797Z,99996.28
2022-10-01T09:33:22.320Z,99995.69
2022-10-01T09:35:56.568Z,100006.59
2022-10-01T09:38:22.891Z,100004.75
2022-10-01T09:40:54.782Z,100011.81
2022-10-01T09:43:27.485Z,100014.81
2022-10-01T09:45:54.048Z,100015.69
2022-10-01T09:48:20.426Z,100020.31
2022-10-01T09:50:55.301Z,100010.06
2022-10-01T09:53:24.215Z,100004.22
2022-10-01T09:55:54.065Z,100003.00
2022-10-01T09:58:22.980Z,100010.47
2022-10-01T10:00:51.578Z,100013.31
2022-10-01T10:03:26.088Z,100014.72
2022-10-01T10:05:52.802Z,100018.13
2022-10-01T10:08:19.160Z,100021.97
2022-10-01T10:10:50.439Z,100022.41
2022-10-01T10:13:17.276Z,100029.63
2022-10-01T10:15:51.325Z,100031.28
2022-10-01T10:18:25.128Z,100028.47
2022-10-01T10:20:52.488Z,100047.38
2022-10-01T10:23:20.618Z,100045.00
2022-10-01T10:25:56.042Z,100037.94
2022-10-01T10:28:23.752Z,100038.53
2022-10-01T10:30:52.620Z,100039.94
2022-10-01T10:33:20.800Z,100043.94
2022-10-01T10:35:57.828Z,100050.34
2022-10-01T10:38:26.432Z,100043.91
2022-10-01T10:40:52.812Z,100055.75
2022-10-01T10:43:20.961Z,100058.53
2022-10-01T10:45:47.669Z,100062.78
2022-10-01T10:48:18.455Z,100057.72
2022-10-01T10:50:46.160Z,100073.03
2022-10-01T10:53:25.876Z,100066.16
2022-10-01T10:56:01.071Z,100075.16
2022-10-01T10:58:37.912Z,100070.75
2022-10-01T11:01:11.865Z,100072.03
2022-10-01T11:03:42.447Z,100080.28
2022-10-01T11:06:11.235Z,100086.22
2022-10-01T11:08:38.785Z,100085.09
2022-10-01T11:11:27.638Z,100077.41
2022-10-01T11:14:04.342Z,100092.34
2022-10-01T11:16:34.122Z,100097.19
2022-10-01T11:19:12.809Z,100095.56
2022-10-01T11:21:39.143Z,100092.56
2022-10-01T11:24:14.712Z,100093.94
2022-10-01T11:26:44.277Z,100088.03
2022-10-01T11:29:25.103Z,100089.91
2022-10-01T11:32:10.006Z,100101.56
2022-10-01T11:34:59.617Z,100096.44
2022-10-01T11:37:33.597Z,100101.94
2022-10-01T11:40:03.322Z,100103.44
2022-10-01T11:42:34.817Z,100106.22
2022-10-01T11:45:04.792Z,100101.44
2022-10-01T11:47:37.780Z,100112.16
2022-10-01T11:50:16.623Z,100108.38
2022-10-01T11:53:00.126Z,100107.75
2022-10-01T11:55:49.638Z,100133.31
2022-10-01T11:58:45.132Z,100124.28
2022-10-01T12:01:25.004Z,100124.88
2022-10-01T12:03:54.340Z,100133.91
2022-10-01T12:06:26.810Z,100143.38
2022-10-01T12:09:17.926Z,100131.06
2022-10-01T12:11:58.869Z,100144.31
2022-10-01T12:14:31.336Z,100142.34
2022-10-01T12:17:05.711Z,100139.25
2022-10-01T12:19:34.304Z,100144.94
2022-10-01T12:22:08.925Z,100146.81
2022-10-01T12:24:38.706Z,100153.31
2022-10-01T12:27:11.621Z,100157.94
2022-10-01T12:29:47.152Z,100152.53
2022-10-01T12:32:16.505Z,100147.53
2022-10-01T12:34:58.171Z,100141.72
2022-10-01T12:37:44.801Z,100154.81
2022-10-01T12:40:27.920Z,100151.38
2022-10-01T12:43:14.074Z,100167.34
2022-10-01T12:45:56.050Z,100168.06
2022-10-01T12:48:29.531Z,100176.13
2022-10-01T12:50:55.851Z,100177.13
2022-10-01T12:53:34.528Z,100175.00
2022-10-01T12:56:04.662Z,100178.84
2022-10-01T12:58:37.032Z,100178.09
2022-10-01T13:01:03.427Z,100182.47
2022-10-01T13:03:32.580Z,100185.63
2022-10-01T13:06:28.366Z,100194.63
2022-10-01T13:09:20.962Z,100201.03
2022-10-01T13:11:49.984Z,100206.16
2022-10-01T13:14:18.875Z,100203.81
2022-10-01T13:16:48.500Z,100214.56
2022-10-01T13:19:24.842Z,100214.16
2022-10-01T13:21:58.282Z,100212.38
2022-10-01T13:24:34.208Z,100210.78
2022-10-01T13:27:01.295Z,100212.25
2022-10-01T13:29:46.077Z,100215.59
2022-10-01T13:32:33.203Z,100221.44
2022-10-01T13:35:01.286Z,100221.22
2022-10-01T13:37:32.475Z,100225.69
2022-10-01T13:40:00.482Z,100227.50
2022-10-01T13:42:28.731Z,100240.63
2022-10-01T13:44:57.055Z,100234.91
2022-10-01T13:47:24.303Z,100222.38
2022-10-01T13:50:16.991Z,100233.00
2022-10-01T13:52:44.071Z,100249.28
2022-10-01T13:55:27.503Z,100256.50
2022-10-01T13:58:07.155Z,100276.88
2022-10-01T14:00:33.581Z,100271.38
2022-10-01T14:03:24.598Z,100276.53
2022-10-01T14:05:56.757Z,100276.91
2022-10-01T14:08:31.773Z,100286.41
2022-10-01T14:11:21.622Z,100286.38
2022-10-01T14:14:07.980Z,100296.88
2022-10-01T14:16:41.890Z,100284.97
2022-10-01T14:19:09.316Z,100286.41
2022-10-01T14:22:07.878Z,100292.97
2022-10-01T14:24:52.936Z,100293.50
2022-10-01T14:27:32.340Z,100303.19
2022-10-01T14:30:16.746Z,100316.53
2022-10-01T14:32:51.081Z,100318.47
2022-10-01T14:35:24.457Z,100320.94
2022-10-01T14:37:51.315Z,100328.28
2022-10-01T14:40:22.653Z,100326.09
2022-10-01T14:43:02.647Z,100325.97
2022-10-01T14:45:29.429Z,100333.63
2022-10-01T14:48:06.002Z,100341.78
2022-10-01T14:50:37.444Z,100331.84
2022-10-01T14:53:04.991Z,100350.03
2022-10-01T14:55:31.566Z,100349.63
2022-10-01T14:57:58.600Z,100354.16
2022-10-01T15:00:27.583Z,100357.56
2022-10-01T15:03:26.218Z,100362.38
2022-10-01T15:06:01.609Z,100365.63
2022-10-01T15:08:41.367Z,100366.66
2022-10-01T15:11:10.176Z,100368.28
2022-10-01T15:13:37.943Z,100378.00
2022-10-01T15:16:05.200Z,100380.19
2022-10-01T15:18:31.871Z,100382.41
2022-10-01T15:21:06.330Z,100382.41
2022-10-01T15:23:36.267Z,100392.50
2022-10-01T15:26:05.020Z,100394.94
2022-10-01T15:28:32.962Z,100383.38
2022-10-01T15:31:00.860Z,100397.34
2022-10-01T15:33:28.885Z,100405.25
2022-10-01T15:35:59.693Z,100405.66
2022-10-01T15:38:26.907Z,100403.47
2022-10-01T15:41:04.984Z,100409.16
2022-10-01T15:43:42.036Z,100416.88
2022-10-01T15:46:10.004Z,100422.94
2022-10-01T15:48:36.571Z,100425.78
2022-10-01T15:51:05.770Z,100434.91
2022-10-01T15:53:32.752Z,100433.88
2022-10-01T15:56:00.557Z,100441.78
2022-10-01T15:58:31.606Z,100443.00
2022-10-01T16:01:09.541Z,100445.59
2022-10-01T16:03:40.362Z,100441.59
2022-10-01T16:06:15.668Z,100443.78
2022-10-01T16:08:51.341Z,100453.72
2022-10-01T16:11:23.529Z,100461.41
2022-10-01T16:13:50.927Z,100462.00
2022-10-01T16:16:19.998Z,100457.97
2022-10-01T16:18:54.084Z,100472.53
2022-10-01T16:21:20.876Z,100476.00
2022-10-01T16:23:49.469Z,100481.63
2022-10-01T16:26:28.147Z,100496.41
2022-10-01T16:28:56.212Z,100501.25
2022-10-01T16:31:23.484Z,100495.38
2022-10-01T16:33:49.918Z,100495.81
2022-10-01T16:36:20.067Z,100498.41
2022-10-01T16:38:47.026Z,100496.63
2022-10-01T16:41:16.447Z,100505.09
2022-10-01T16:43:43.325Z,100498.59
2022-10-01T16:46:09.758Z,100502.03
2022-10-01T16:48:36.159Z,100513.94
2022-10-01T16:51:02.582Z,100517.09
2022-10-01T16:53:29.504Z,100530.47
2022-10-01T16:55:58.019Z,100533.78
2022-10-01T16:58:24.758Z,100532.34
2022-10-01T17:00:51.367Z,100547.22
2022-10-01T17:03:19.305Z,100546.97
2022-10-01T17:05:46.392Z,100550.78
2022-10-01T17:08:12.927Z,100560.34
2022-10-01T17:10:41.102Z,100555.28
2022-10-01T17:13:07.475Z,100570.38
2022-10-01T17:15:33.818Z,100568.91
2022-10-01T17:18:00.236Z,100572.38
2022-10-01T17:20:28.510Z,100580.22
2022-10-01T17:22:55.480Z,100577.44
2022-10-01T17:25:23.335Z,100582.63
2022-10-01T17:27:49.992Z,100592.41
2022-10-01T17:30:16.469Z,100596.84
2022-10-01T17:32:43.358Z,100597.22
2022-10-01T17:35:10.773Z,100607.72
2022-10-01T17:37:37.923Z,100608.94
2022-10-01T17:40:05.612Z,100616.44
2022-10-01T17:42:34.416Z,100618.41
2022-10-01T17:45:01.495Z,100626.28
2022-10-01T17:47:27.849Z,100635.66
2022-10-01T17:49:54.343Z,100642.47
2022-10-01T17:52:20.885Z,100643.88
2022-10-01T17:54:47.264Z,100652.16
2022-10-01T17:57:13.794Z,100657.34
2022-10-01T17:59:40.174Z,100673.84
2022-10-01T18:02:23.614Z,100680.78
2022-10-01T18:04:53.510Z,100683.19
2022-10-01T18:07:20.359Z,100691.19
2022-10-01T18:09:46.852Z,100696.59
2022-10-01T18:12:13.695Z,100697.50
2022-10-01T18:14:40.213Z,100702.09
2022-10-01T18:17:06.612Z,100713.31
2022-10-01T18:22:19.345Z,100699.50
2022-10-01T18:24:45.824Z,100710.00
2022-10-01T18:27:13.450Z,100707.84
2022-10-01T18:29:40.038Z,100721.28
2022-10-01T18:32:16.223Z,100726.59
2022-10-01T18:34:47.538Z,100721.66
2022-10-01T18:37:19.652Z,100731.03
2022-10-01T18:40:09.411Z,100741.25
2022-10-01T18:42:38.847Z,100746.31
2022-10-01T18:45:12.768Z,100750.94
2022-10-01T18:47:44.313Z,100758.34
2022-10-01T18:50:21.466Z,100752.06
2022-10-01T18:52:47.825Z,100761.47
2022-10-01T18:55:20.945Z,100763.09
2022-10-01T18:57:47.765Z,100761.00
2022-10-01T19:00:17.287Z,100763.75
2022-10-01T19:03:02.223Z,100768.97
2022-10-01T19:05:31.638Z,100781.81
2022-10-01T19:08:04.103Z,100785.03
2022-10-01T19:10:30.536Z,100782.63
2022-10-01T19:12:59.878Z,100783.06
2022-10-01T19:15:29.346Z,100786.41
2022-10-01T19:18:14.615Z,100795.06
2022-10-01T19:20:48.632Z,100792.66
2022-10-01T19:23:33.433Z,100796.59
2022-10-01T19:26:07.405Z,100805.00
2022-10-01T19:28:53.506Z,100813.50
2022-10-01T19:31:20.519Z,100809.88
2022-10-01T19:33:51.515Z,100814.66
2022-10-01T19:36:22.855Z,100814.84
2022-10-01T19:38:50.842Z,100816.19
2022-10-01T19:41:23.114Z,100819.78
2022-10-01T19:43:55.518Z,100824.41
2022-10-01T19:46:21.923Z,100830.66
2022-10-01T19:48:54.879Z,100821.50
2022-10-01T19:51:23.133Z,100822.84
2022-10-01T19:53:59.990Z,100823.53
2022-10-01T19:56:31.955Z,100821.75
2022-10-01T19:59:01.475Z,100827.63
2022-10-01T20:01:37.414Z,100839.44
2022-10-01T20:04:06.180Z,100836.19
2022-10-01T20:06:35.142Z,100838.34
2022-10-01T20:09:04.475Z,100844.09
2022-10-01T20:11:35.735Z,100844.09
2022-10-01T20:14:32.940Z,100849.22
2022-10-01T20:17:00.500Z,100860.16
2022-10-01T20:19:31.217Z,100858.06
2022-10-01T20:22:04.728Z,100870.53
2022-10-01T20:24:42.415Z,100868.91
2022-10-01T20:27:27.934Z,100862.50
2022-10-01T20:30:15.732Z,100863.66
2022-10-01T20:32:51.439Z,100871.22
2022-10-01T20:35:26.140Z,100875.78
2022-10-01T20:38:08.462Z,100879.41
2022-10-01T20:40:49.804Z,100883.00
2022-10-01T20:43:20.421Z,100880.25
2022-10-01T20:45:49.620Z,100890.53
2022-10-01T20:48:48.269Z,100887.09
2022-10-01T20:51:24.177Z,100893.97
2022-10-01T20:54:13.937Z,100893.50
2022-10-01T20:56:46.238Z,100896.28
2022-10-01T20:59:24.754Z,100899.44
2022-10-01T21:02:14.166Z,100900.56
2022-10-01T21:04:43.347Z,100912.03
2022-10-01T21:07:29.941Z,100908.94
2022-10-01T21:09:57.821Z,100915.97
2022-10-01T21:12:29.711Z,100913.72
2022-10-01T21:14:56.752Z,100921.72
2022-10-01T21:17:23.056Z,100929.56
2022-10-01T21:19:55.459Z,100924.66
2022-10-01T21:22:42.644Z,100922.41
2022-10-01T21:25:15.253Z,100926.84
2022-10-01T21:28:07.614Z,100925.72
2022-10-01T21:30:57.336Z,100927.03
2022-10-01T21:33:23.656Z,100936.50
2022-10-01T21:36:11.268Z,100941.09
2022-10-01T21:38:45.359Z,100932.88
2022-10-01T21:41:48.085Z,100934.88
2022-10-01T21:44:17.245Z,100941.41
2022-10-01T21:47:06.668Z,100933.75
2022-10-01T21:49:49.304Z,100941.28
2022-10-01T21:52:23.501Z,100942.56
2022-10-01T21:55:00.785Z,100944.06
2022-10-01T21:57:51.383Z,100943.88
2022-10-01T22:00:24.593Z,100950.59
2022-10-01T22:02:53.695Z,100949.97
2022-10-01T22:05:38.957Z,100959.44
2022-10-01T22:08:08.697Z,100964.84
2022-10-01T22:10:40.209Z,100964.16
2022-10-01T22:13:12.308Z,100966.31
2022-10-01T22:15:40.343Z,100970.91
2022-10-01T22:18:10.465Z,100971.53
2022-10-01T22:20:39.124Z,100977.59
2022-10-01T22:23:09.711Z,100974.34
2022-10-01T22:25:40.236Z,100984.47
2022-10-01T22:28:10.169Z,100984.31
2022-10-01T22:30:38.701Z,100991.50
2022-10-01T22:33:23.945Z,100996.72
2022-10-01T22:36:02.143Z,100996.22
2022-10-01T22:38:44.293Z,100993.31
2022-10-01T22:41:17.623Z,100993.47
2022-10-01T22:43:45.636Z,100999.16
2022-10-01T22:46:30.740Z,100993.66
2022-10-01T22:49:09.489Z,100995.25
2022-10-01T22:51:45.566Z,100996.06
2022-10-01T22:54:21.831Z,101000.97
2022-10-01T22:57:03.130Z,101008.66
2022-10-01T22:59:37.113Z,101000.50
2022-10-01T23:02:03.648Z,100997.22
2022-10-01T23:04:33.977Z,100991.34
2022-10-01T23:07:00.280Z,100996.56
2022-10-01T23:09:45.000Z,101004.09
2022-10-01T23:12:17.770Z,100999.81
2022-10-01T23:14:56.191Z,100995.59
2022-10-01T23:17:34.907Z,100996.25
2022-10-01T23:20:10.570Z,100999.03
2022-10-01T23:22:46.012Z,101002.13
2022-10-01T23:25:18.040Z,100994.63
2022-10-01T23:27:50.716Z,100999.69
2022-10-01T23:30:18.734Z,100995.44
2022-10-01T23:32:51.186Z,101001.97
2022-10-01T23:35:21.408Z,101000.31
2022-10-01T23:37:53.552Z,101001.97
2022-10-01T23:40:22.230Z,101007.34
2022-10-01T23:42:53.061Z,101004.25
2022-10-01T23:45:48.603Z,101009.16
2022-10-01T23:48:27.798Z,101005.22
2022-10-01T23:50:54.145Z,101011.75
2022-10-01T23:53:27.567Z,101012.09
2022-10-01T23:56:20.919Z,101009.63
2022-10-01T23:58:50.508Z,101004.91
